Portada
METAR-TAF:

METAR-TAF

Aeroports :

Aeroport de Fuerteventura

Fuerteventura, Espanya

latitud: 28-27N, longitud: 013-52W, altitud: 22 m

Observació

L'informe es va fer fa 42 minuts, a les 00:00 UTC
Vent 7 kt del Sud-Est, variant entre Est i Sud/Sud-Est
Temperatura 17°C
Humitat 63%
Pressió 1024 hPa
Visibilitat 10 km o més

METAR: GCFV 180000Z AUTO 13007KT 100V160 9999 ////// 17/10 Q1024

Hora: 00:42 (00:42 UTC)

Pronòstic

L'informe es va fer fa 2 hores i 8 minuts, a les 22:34 UTC
Pronòstic vàlid del 17 a les 22 UTC al 18 a les 21 UTC
Vent 10 kt del Sud-Est
Visibilitat: 9000 m
Núvols disperses a una alçada de 4500 ft
Probabilitat 30% :
Temporalment
l' 17 a les 22 UTC al 18 a les 02 UTC
Visibilitat: 3000 m
pluja, calitja
Temporalment
l' 17 a les 22 UTC al 18 a les 02 UTC
Cel ennuvolat a una alçada de 2500 ft, Cumulonimbus.

TAF: GCFV 172234Z 1722/1821 13010KT 9000 SCT045 TX21/1814Z TN15/1805Z PROB30 TEMPO 1722/1802 3000 RA HZ TEMPO 1722/1802 BKN025CB

Observacions i pronòstics meteorològics de més de 4000 aeroports (METAR i TAF).

Les estacions disponibles són els punts grocs i vermells al mapa.

Posi el ratolí al punt desitjat per veure el nom de l'estació.

Feu clic per veure les observacions i els pronòstics meteorològics.

Per canviar el mapa: feu clic els botons verds amb una creu de color negre per apropar; al botó verd amb un guió per allunyar la imatge; o en les fletxes verdes per a mapes adjacents.


METAR-TAF: